Terminal Aerodrome Forecast
Issued by NWS

Home | Current Version | Previous Version | Text Only | Print | Product List | Glossary On
Versions: 1 2 3 4 5 6 7 8 9 10 11 12 13 14 15 16 17 18 19 20 21 22 23 24 25 26 27 28 29 30
000
FTUS44 KHGX 201120
TAFLBX
TAF
KLBX 201120Z 2012/2112 VRB04KT P6SM FEW025 SCT035
     FM201400 17007KT P6SM VCSH FEW025 SCT035
     FM201900 16012KT P6SM FEW035 SCT050 SCT250
     FM210300 16006KT P6SM SCT250
     FM211000 VRB03KT 5SM BR FEW025=

USA.gov is the U.S. government's official web portal to all federal, state and local government web resources and services.